Time;durP1;ratioP1;P1;durP2;ratioP2;P2;SDS_P1;SDS_P2;PMS_P1;PMS_P2;Temp;Humidity;BMP_temperature;BMP_pressure;BME280_temperature;BME280_humidity;BME280_pressure;Samples;Min_cycle;Max_cycle;Signal;HPM_P1;HPM_P2
2021/05/31 00:01:06;;;;;;;35.85;17.73;;;;;;;11.96;99.60;102309.94;6249290;28;20103;-77
2021/05/31 00:04:07;;;;;;;32.72;17.17;;;;;;;11.92;99.77;102310.03;6249221;28;20128;-78
2021/05/31 00:07:10;;;;;;;32.20;17.52;;;;;;;11.88;99.44;102300.53;6249661;28;20049;-77
2021/05/31 00:10:12;;;;;;;34.28;16.58;;;;;;;11.82;100.00;102299.84;6249042;28;20053;-78
2021/05/31 00:13:16;;;;;;;38.70;18.20;;;;;;;11.81;100.00;102298.09;6249270;28;20501;-77
2021/05/31 00:16:17;;;;;;;33.38;16.98;;;;;;;11.83;100.00;102299.81;6249306;28;20650;-76
2021/05/31 00:19:19;;;;;;;32.70;17.77;;;;;;;11.86;100.00;102301.50;6249033;28;20543;-77
2021/05/31 00:22:20;;;;;;;31.52;17.80;;;;;;;11.83;100.00;102297.19;6248852;28;20412;-77
2021/05/31 00:25:23;;;;;;;32.10;17.05;;;;;;;11.78;100.00;102298.22;6249461;28;20056;-77
2021/05/31 00:28:25;;;;;;;28.17;17.58;;;;;;;11.72;100.00;102294.03;6249103;28;20057;-77
2021/05/31 00:31:26;;;;;;;35.53;18.60;;;;;;;11.61;100.00;102291.72;6248623;28;20053;-77
2021/05/31 00:34:27;;;;;;;33.50;18.05;;;;;;;11.75;100.00;102291.28;6248961;28;20436;-77
2021/05/31 00:37:28;;;;;;;38.00;18.30;;;;;;;11.66;100.00;102295.06;6248562;28;20107;-77
2021/05/31 00:40:30;;;;;;;38.60;19.05;;;;;;;11.50;100.00;102291.22;6248386;28;20618;-76
2021/05/31 00:43:33;;;;;;;39.90;18.83;;;;;;;11.60;100.00;102287.38;6248469;28;20072;-77
2021/05/31 00:46:34;;;;;;;31.55;17.00;;;;;;;11.50;100.00;102288.59;6248778;28;20045;-77
2021/05/31 00:49:38;;;;;;;37.35;18.10;;;;;;;11.53;100.00;102296.38;6248474;28;20156;-77
2021/05/31 00:52:39;;;;;;;39.45;17.88;;;;;;;11.48;100.00;102290.41;6248422;28;20072;-77
2021/05/31 00:55:41;;;;;;;31.40;19.55;;;;;;;11.43;100.00;102290.56;6248246;28;20055;-76
2021/05/31 00:58:43;;;;;;;41.10;20.60;;;;;;;11.35;100.00;102275.91;6248327;28;20049;-78
2021/05/31 01:01:44;;;;;;;46.33;19.48;;;;;;;11.34;100.00;102275.06;6247970;28;20731;-76
2021/05/31 01:04:45;;;;;;;33.03;18.70;;;;;;;11.44;100.00;102275.63;6248146;28;20119;-77
2021/05/31 01:07:50;;;;;;;35.50;19.42;;;;;;;11.36;100.00;102282.91;6248431;28;20046;-77
2021/05/31 01:11:00;;;;;;;32.88;18.83;;;;;;;11.39;100.00;102277.53;6247706;28;20104;-78
2021/05/31 01:14:08;;;;;;;37.15;19.60;;;;;;;11.27;100.00;102284.06;6248088;28;20045;-77
2021/05/31 01:17:14;;;;;;;40.10;20.07;;;;;;;11.25;100.00;102285.03;6247800;28;20049;-77
2021/05/31 01:20:23;;;;;;;34.15;18.35;;;;;;;11.28;100.00;102280.53;6247846;28;20049;-78
2021/05/31 01:23:29;;;;;;;33.22;19.95;;;;;;;11.21;100.00;102278.13;6247900;28;20084;-77
2021/05/31 01:26:43;;;;;;;32.38;19.17;;;;;;;11.09;100.00;102279.38;6248036;28;20050;-77
2021/05/31 01:29:51;;;;;;;37.22;19.83;;;;;;;11.01;100.00;102278.75;6247444;28;20056;-78
2021/05/31 01:32:55;;;;;;;37.60;20.70;;;;;;;10.95;100.00;102282.44;6247710;28;20607;-77
2021/05/31 01:35:58;;;;;;;44.35;21.52;;;;;;;10.95;100.00;102277.19;6247685;28;20057;-78
2021/05/31 01:38:59;;;;;;;43.03;21.95;;;;;;;10.91;100.00;102273.78;6247303;28;20412;-78
2021/05/31 01:42:01;;;;;;;39.22;21.52;;;;;;;10.92;100.00;102275.50;6247837;28;20045;-77
2021/05/31 01:45:05;;;;;;;47.17;20.95;;;;;;;10.97;100.00;102269.22;6247603;28;20420;-78
2021/05/31 01:48:09;;;;;;;39.65;19.85;;;;;;;10.87;100.00;102269.50;6247695;28;20053;-77
2021/05/31 01:51:10;;;;;;;41.08;22.60;;;;;;;10.87;100.00;102261.63;6247892;28;20049;-77
2021/05/31 01:54:13;;;;;;;34.58;20.65;;;;;;;10.78;100.00;102261.91;6247691;28;20496;-77
2021/05/31 01:57:14;;;;;;;43.80;21.27;;;;;;;10.70;100.00;102263.03;6247518;28;20401;-77
2021/05/31 02:00:18;;;;;;;38.85;20.42;;;;;;;10.65;100.00;102257.91;6248033;28;20054;-78
2021/05/31 02:03:19;;;;;;;40.22;20.38;;;;;;;10.64;100.00;102258.81;6248857;28;20140;-77
2021/05/31 02:06:20;;;;;;;34.22;20.02;;;;;;;10.63;100.00;102262.38;6247934;28;20046;-77
2021/05/31 02:09:22;;;;;;;40.20;21.13;;;;;;;10.46;100.00;102264.59;6246846;28;20045;-79
2021/05/31 02:12:27;;;;;;;40.03;21.50;;;;;;;10.35;100.00;102257.88;6249702;28;20050;-77
2021/05/31 02:15:33;;;;;;;38.15;21.35;;;;;;;10.31;100.00;102256.25;6251927;28;20053;-77
2021/05/31 02:18:39;;;;;;;37.78;21.23;;;;;;;10.23;100.00;102268.69;6252028;28;20049;-78
2021/05/31 02:21:42;;;;;;;36.63;21.55;;;;;;;10.27;100.00;102259.00;6253244;28;20057;-78
2021/05/31 02:24:43;;;;;;;34.88;21.98;;;;;;;10.17;100.00;102268.84;6258420;28;20057;-78
2021/05/31 02:27:46;;;;;;;39.05;22.08;;;;;;;10.26;100.00;102265.16;6254975;28;20407;-77
2021/05/31 02:30:48;;;;;;;36.38;21.52;;;;;;;10.19;100.00;102261.81;6252358;28;20050;-77
2021/05/31 02:33:49;;;;;;;36.75;20.40;;;;;;;10.09;100.00;102260.34;6253509;28;20054;-77
2021/05/31 02:36:51;;;;;;;29.58;19.13;;;;;;;10.00;100.00;102260.59;6252863;28;20049;-77
2021/05/31 02:39:52;;;;;;;36.17;19.05;;;;;;;9.95;100.00;102267.69;6253116;28;20052;-77
2021/05/31 02:42:56;;;;;;;27.70;17.48;;;;;;;9.91;100.00;102267.81;6268066;28;20124;-77
2021/05/31 02:45:58;;;;;;;29.65;18.90;;;;;;;9.81;100.00;102268.94;6280704;28;20056;-78
2021/05/31 02:48:59;;;;;;;31.17;18.27;;;;;;;9.76;100.00;102276.06;6281313;28;20041;-77
2021/05/31 02:52:00;;;;;;;31.35;17.55;;;;;;;9.79;100.00;102272.50;6287516;28;20074;-77
2021/05/31 02:55:01;;;;;;;30.35;18.75;;;;;;;9.60;100.00;102266.84;6287945;28;20059;-78
2021/05/31 02:58:02;;;;;;;29.20;16.45;;;;;;;9.59;100.00;102273.00;6289304;28;20049;-78
2021/05/31 03:01:04;;;;;;;28.92;19.23;;;;;;;9.53;100.00;102278.38;6280352;28;20037;-78
2021/05/31 03:04:05;;;;;;;27.45;16.52;;;;;;;9.57;100.00;102277.41;6280737;28;20511;-78
2021/05/31 03:07:06;;;;;;;29.67;18.40;;;;;;;9.49;100.00;102276.75;6276860;28;20086;-78
2021/05/31 03:10:08;;;;;;;25.13;16.67;;;;;;;9.55;100.00;102280.09;6276428;28;20055;-78
2021/05/31 03:13:09;;;;;;;23.30;16.83;;;;;;;9.52;100.00;102274.91;6276419;28;20041;-77
2021/05/31 03:16:11;;;;;;;24.30;16.77;;;;;;;9.44;100.00;102276.00;6276561;28;20059;-78
2021/05/31 03:19:12;;;;;;;26.25;17.05;;;;;;;9.41;100.00;102287.44;6276043;28;20403;-77
2021/05/31 03:22:14;;;;;;;21.98;15.82;;;;;;;9.40;100.00;102283.97;6275518;28;20077;-78
2021/05/31 03:25:15;;;;;;;23.05;15.70;;;;;;;9.47;100.00;102284.66;6268631;28;20483;-78
2021/05/31 03:28:16;;;;;;;23.60;15.77;;;;;;;9.47;100.00;102279.41;6275996;28;20053;-78
2021/05/31 03:31:18;;;;;;;24.30;15.82;;;;;;;9.39;100.00;102274.34;6275713;28;20048;-78
2021/05/31 03:34:19;;;;;;;25.33;15.38;;;;;;;9.34;100.00;102285.84;6275436;28;20045;-78
2021/05/31 03:37:19;;;;;;;22.15;15.23;;;;;;;9.36;100.00;102282.31;6276098;28;20071;-77
2021/05/31 03:40:22;;;;;;;24.88;15.95;;;;;;;9.48;100.00;102285.50;6275935;28;20045;-78
2021/05/31 03:43:22;;;;;;;25.92;16.67;;;;;;;9.63;100.00;102288.66;6275804;28;20095;-78
2021/05/31 03:46:25;;;;;;;28.48;16.20;;;;;;;9.65;100.00;102285.97;6275294;28;20057;-78
2021/05/31 03:49:26;;;;;;;28.25;16.98;;;;;;;9.67;100.00;102281.53;6274338;28;20056;-78
2021/05/31 03:52:27;;;;;;;23.77;15.55;;;;;;;9.63;100.00;102280.78;6275592;28;20419;-78
2021/05/31 03:55:28;;;;;;;26.75;16.30;;;;;;;9.64;100.00;102282.50;6274552;28;20122;-78
2021/05/31 03:58:29;;;;;;;24.17;15.13;;;;;;;9.57;100.00;102275.66;6275597;28;20049;-78
2021/05/31 04:01:31;;;;;;;24.60;15.60;;;;;;;9.58;100.00;102280.03;6274318;28;20053;-78
2021/05/31 04:04:40;;;;;;;25.65;15.15;;;;;;;9.61;100.00;102284.31;6274616;28;20492;-77
2021/05/31 04:14:21;;;;;;;21.73;14.07;;;;;;;9.59;100.00;102283.50;6274470;28;20057;-78
2021/05/31 04:17:24;;;;;;;20.67;13.23;;;;;;;9.55;100.00;102287.97;6274493;28;20057;-78
2021/05/31 04:20:25;;;;;;;20.27;11.35;;;;;;;9.55;100.00;102287.97;6274094;28;20484;-78
2021/05/31 04:23:26;;;;;;;16.52;12.05;;;;;;;9.56;100.00;102291.44;6274596;28;20064;-78
2021/05/31 04:26:27;;;;;;;19.30;12.25;;;;;;;9.61;100.00;102295.69;6274213;28;20427;-77
2021/05/31 04:29:28;;;;;;;20.58;11.18;;;;;;;9.65;100.00;102286.84;6274187;28;20045;-78
2021/05/31 04:32:30;;;;;;;19.70;11.98;;;;;;;9.74;100.00;102288.38;6274035;28;20049;-77
2021/05/31 04:35:32;;;;;;;20.08;11.23;;;;;;;9.81;100.00;102289.94;6273789;28;20049;-78
2021/05/31 04:38:33;;;;;;;24.20;10.48;;;;;;;9.85;100.00;102290.72;6274236;28;20446;-78
2021/05/31 04:41:35;;;;;;;17.08;9.95;;;;;;;9.87;100.00;102287.16;6273941;28;20052;-78
2021/05/31 04:44:36;;;;;;;16.27;9.98;;;;;;;9.98;100.00;102283.38;6273851;28;20052;-78
2021/05/31 04:47:38;;;;;;;15.20;8.38;;;;;;;10.08;100.00;102293.63;6273404;28;20049;-78
2021/05/31 04:50:39;;;;;;;13.57;8.75;;;;;;;10.06;100.00;102286.69;6273044;28;20045;-77
2021/05/31 04:53:40;;;;;;;15.05;8.43;;;;;;;10.06;100.00;102284.91;6273262;28;20055;-78
2021/05/31 04:56:41;;;;;;;13.32;7.88;;;;;;;10.06;100.00;102292.78;6273433;28;20060;-78
2021/05/31 04:59:42;;;;;;;13.98;7.55;;;;;;;10.10;100.00;102289.19;6272635;28;20055;-78
2021/05/31 05:02:44;;;;;;;10.18;7.90;;;;;;;10.14;100.00;102297.84;6273492;28;20049;-78
2021/05/31 05:05:45;;;;;;;21.90;8.60;;;;;;;10.18;100.00;102293.38;6273340;28;20316;-78
2021/05/31 05:08:46;;;;;;;14.80;8.15;;;;;;;10.22;100.00;102289.75;6264685;28;20515;-77
2021/05/31 05:11:47;;;;;;;12.80;8.43;;;;;;;10.28;100.00;102294.88;6269822;28;20112;-78
2021/05/31 05:14:48;;;;;;;15.63;7.55;;;;;;;10.34;100.00;102290.31;6264488;28;20080;-77
2021/05/31 05:17:50;;;;;;;10.63;7.47;;;;;;;10.33;99.93;102288.59;6251887;28;20053;-77
2021/05/31 05:20:51;;;;;;;11.93;7.93;;;;;;;10.40;99.66;102281.38;6247096;28;20056;-76
2021/05/31 05:23:52;;;;;;;10.43;7.55;;;;;;;10.46;99.73;102283.00;6247620;28;20053;-77
2021/05/31 05:26:53;;;;;;;13.35;7.13;;;;;;;10.49;97.93;102280.28;6247610;28;20057;-76
2021/05/31 05:29:54;;;;;;;12.15;7.28;;;;;;;10.51;97.95;102278.47;6256749;28;20065;-77
2021/05/31 05:33:00;;;;;;;11.38;8.05;;;;;;;10.51;97.78;102281.97;6261500;28;20132;-77
2021/05/31 05:36:11;;;;;;;9.35;6.32;;;;;;;10.60;95.84;102286.09;6268962;28;20427;-76
2021/05/31 05:42:43;;;;;;;16.77;6.72;;;;;;;10.77;96.39;102273.31;6271633;28;20049;-75
2021/05/31 05:45:52;;;;;;;9.38;6.00;;;;;;;10.92;95.71;102272.00;6271446;28;20137;-77
2021/05/31 05:48:54;;;;;;;11.15;5.85;;;;;;;10.91;95.05;102270.28;6271663;28;20053;-77
2021/05/31 05:51:55;;;;;;;12.00;5.75;;;;;;;10.96;93.84;102275.41;6271733;28;20052;-77
2021/05/31 05:54:56;;;;;;;11.60;5.13;;;;;;;11.01;93.85;102281.38;6271804;28;20052;-76
2021/05/31 05:57:57;;;;;;;11.70;6.10;;;;;;;11.10;92.78;102276.69;6271366;28;20059;-77
2021/05/31 06:00:59;;;;;;;11.60;5.60;;;;;;;11.17;92.58;102279.97;6267853;28;20496;-77
2021/05/31 06:04:01;;;;;;;12.07;5.60;;;;;;;11.24;92.55;102286.78;6262900;28;20049;-76
2021/05/31 06:07:03;;;;;;;12.27;5.40;;;;;;;11.52;89.11;102285.91;6263486;28;20045;-76
2021/05/31 06:10:06;;;;;;;7.63;4.88;;;;;;;11.53;88.21;102280.59;6264794;28;20504;-77
2021/05/31 06:13:07;;;;;;;7.45;5.07;;;;;;;11.56;90.00;102284.91;6271550;28;20060;-77
2021/05/31 06:16:09;;;;;;;22.90;5.65;;;;;;;11.61;89.76;102291.72;6271693;28;20049;-77
2021/05/31 06:19:11;;;;;;;7.63;4.28;;;;;;;11.71;85.58;102286.16;6262926;28;20087;-77
2021/05/31 06:22:12;;;;;;;7.15;3.88;;;;;;;11.80;82.62;102277.94;6271770;28;20045;-77
2021/05/31 06:25:13;;;;;;;7.40;4.72;;;;;;;11.76;84.63;102277.19;6271176;28;20049;-77
2021/05/31 06:28:15;;;;;;;10.73;5.30;;;;;;;11.82;85.92;102276.13;6271374;28;20053;-77
2021/05/31 06:31:15;;;;;;;8.52;4.90;;;;;;;11.85;87.59;102274.28;6271033;28;20057;-77
2021/05/31 06:34:18;;;;;;;20.30;6.05;;;;;;;11.90;88.73;102272.38;6271325;28;20106;-77
2021/05/31 06:37:19;;;;;;;8.95;5.45;;;;;;;12.03;87.01;102269.28;6266236;28;20045;-77
2021/05/31 06:40:20;;;;;;;13.43;5.47;;;;;;;12.05;86.78;102272.75;6262328;28;20053;-77
2021/05/31 06:43:20;;;;;;;6.40;4.35;;;;;;;12.30;82.99;102272.72;6266224;28;20056;-77
2021/05/31 06:46:21;;;;;;;7.13;4.38;;;;;;;12.26;84.12;102261.41;6272189;28;20091;-78
2021/05/31 06:49:24;;;;;;;13.00;4.22;;;;;;;12.26;85.08;102261.41;6266402;28;20163;-78
2021/05/31 06:52:24;;;;;;;8.98;3.55;;;;;;;12.27;83.52;102262.31;6263090;28;20050;-78
2021/05/31 06:55:27;;;;;;;9.13;3.75;;;;;;;12.31;83.15;102258.63;6266551;28;20511;-78
2021/05/31 06:58:27;;;;;;;10.30;3.42;;;;;;;12.37;79.75;102259.25;6275179;28;20114;-78
2021/05/31 07:01:28;;;;;;;7.00;3.05;;;;;;;12.50;78.90;102259.69;6277596;28;20049;-77
2021/05/31 07:04:30;;;;;;;5.55;3.33;;;;;;;12.54;80.73;102263.06;6277588;28;20132;-78
2021/05/31 07:07:31;;;;;;;7.18;3.55;;;;;;;12.58;79.56;102255.00;6277657;28;20052;-78
2021/05/31 07:10:32;;;;;;;4.72;2.33;;;;;;;12.65;74.74;102251.19;6277026;28;20435;-78
2021/05/31 07:13:33;;;;;;;5.78;2.60;;;;;;;12.75;74.09;102245.56;6278004;28;20053;-79
2021/05/31 07:16:34;;;;;;;4.97;2.90;;;;;;;12.80;71.24;102255.00;6277877;28;20415;-78
2021/05/31 07:19:36;;;;;;;5.85;2.25;;;;;;;12.88;70.44;102252.09;6277623;28;20049;-78
2021/05/31 07:22:38;;;;;;;5.28;2.33;;;;;;;12.99;68.78;102243.72;6278228;28;20495;-78
2021/05/31 07:25:39;;;;;;;7.50;2.90;;;;;;;13.07;69.81;102253.06;6278177;28;20048;-79
2021/05/31 07:28:40;;;;;;;9.70;2.75;;;;;;;13.08;71.01;102254.81;6277060;28;20044;-78
2021/05/31 07:31:41;;;;;;;11.40;3.03;;;;;;;13.11;70.64;102244.13;6276933;28;20076;-78
2021/05/31 07:34:43;;;;;;;5.15;2.80;;;;;;;13.18;70.10;102245.59;6275538;28;20045;-79
2021/05/31 07:37:45;;;;;;;4.47;2.28;;;;;;;13.19;70.38;102239.41;6271756;28;20403;-77
2021/05/31 07:40:46;;;;;;;3.90;2.17;;;;;;;13.24;69.47;102241.88;6266843;28;20522;-77
2021/05/31 07:43:47;;;;;;;17.48;3.20;;;;;;;13.33;68.37;102240.66;6266547;28;20053;-77
2021/05/31 07:46:48;;;;;;;7.80;2.40;;;;;;;13.41;69.49;102225.34;6274453;28;20052;-77
2021/05/31 07:49:50;;;;;;;4.75;2.28;;;;;;;13.49;67.04;102236.47;6261649;28;20119;-78
2021/05/31 07:52:51;;;;;;;5.18;2.13;;;;;;;13.59;67.36;102231.66;6266645;28;20056;-78
2021/05/31 07:55:52;;;;;;;3.05;1.90;;;;;;;13.66;64.48;102233.94;6261447;28;20041;-77
2021/05/31 07:58:56;;;;;;;12.32;2.25;;;;;;;13.83;57.31;102227.94;6258503;28;20448;-77
2021/05/31 08:01:57;;;;;;;2.53;1.50;;;;;;;13.87;54.06;102223.41;6253678;28;20103;-77
2021/05/31 08:04:59;;;;;;;3.28;1.63;;;;;;;14.04;52.63;102226.16;6268245;28;20489;-78
2021/05/31 08:08:00;;;;;;;4.75;1.27;;;;;;;14.39;51.03;102221.91;6266264;28;20049;-77
2021/05/31 08:11:01;;;;;;;4.20;1.65;;;;;;;14.50;50.26;102223.28;6273232;28;20045;-78
2021/05/31 08:14:04;;;;;;;2.70;1.40;;;;;;;14.57;47.75;102224.69;6275354;28;20052;-78
2021/05/31 08:17:05;;;;;;;3.20;1.67;;;;;;;14.54;49.15;102228.34;6271314;28;20076;-78
2021/05/31 08:20:10;;;;;;;4.20;1.20;;;;;;;14.53;50.33;102229.25;6249815;28;20049;-77
2021/05/31 08:23:11;;;;;;;2.72;1.60;;;;;;;14.56;48.54;102226.47;6259668;28;20055;-78
2021/05/31 08:26:12;;;;;;;2.83;1.50;;;;;;;14.52;49.49;102224.91;6274840;28;20049;-77
2021/05/31 08:29:13;;;;;;;2.22;1.13;;;;;;;14.55;45.29;102231.84;6273776;28;20052;-78
2021/05/31 08:32:14;;;;;;;2.83;1.08;;;;;;;14.65;44.08;102223.41;6274886;28;20049;-79
2021/05/31 08:35:16;;;;;;;5.07;1.10;;;;;;;14.69;46.29;102226.75;6272824;28;20049;-79
2021/05/31 08:38:18;;;;;;;2.00;1.10;;;;;;;14.82;46.19;102229.69;6264396;28;20053;-77
2021/05/31 08:41:19;;;;;;;1.77;1.13;;;;;;;15.01;43.69;102227.03;6273705;28;20057;-78
2021/05/31 08:44:20;;;;;;;6.40;1.50;;;;;;;15.01;45.21;102232.31;6268176;28;20221;-79
2021/05/31 08:47:26;;;;;;;2.53;1.08;;;;;;;15.11;44.38;102234.44;6273734;28;20526;-76
2021/05/31 08:50:30;;;;;;;4.47;1.13;;;;;;;15.16;44.08;102224.47;6272508;28;20045;-77
2021/05/31 08:53:32;;;;;;;6.00;1.20;;;;;;;15.35;42.20;102218.28;6261412;28;20088;-79
2021/05/31 08:56:34;;;;;;;7.93;1.45;;;;;;;15.29;42.59;102221.22;6259402;28;20060;-77
2021/05/31 08:59:35;;;;;;;3.47;1.50;;;;;;;15.51;41.04;102216.59;6272097;28;20045;-77
2021/05/31 09:02:37;;;;;;;7.60;1.38;;;;;;;15.69;41.38;102212.16;6272571;28;20534;-78
2021/05/31 09:05:41;;;;;;;15.10;1.92;;;;;;;15.61;41.07;102222.25;6272925;28;20423;-76
2021/05/31 09:08:51;;;;;;;4.00;1.23;;;;;;;15.76;42.22;102207.41;6268759;28;20056;-78
2021/05/31 09:11:56;;;;;;;2.92;1.33;;;;;;;15.71;42.85;102212.94;6258730;28;20053;-76
2021/05/31 09:15:00;;;;;;;3.10;1.30;;;;;;;15.69;44.05;102220.13;6256081;28;20080;-79
2021/05/31 09:18:02;;;;;;;3.83;1.20;;;;;;;15.86;41.34;102206.84;6275414;28;20049;-77
2021/05/31 09:21:16;;;;;;;6.30;1.60;;;;;;;15.87;40.00;102213.00;6263873;28;20541;-79
2021/05/31 09:24:22;;;;;;;4.68;1.30;;;;;;;16.06;39.60;102197.84;6257666;28;20056;-76
2021/05/31 09:27:24;;;;;;;6.28;1.67;;;;;;;16.05;41.33;102200.59;6266605;28;20052;-76
2021/05/31 09:30:33;;;;;;;3.80;1.27;;;;;;;16.07;42.21;102199.53;6271971;28;20492;-77
2021/05/31 09:33:34;;;;;;;;;;;;;;;16.22;40.33;102195.25;6273439;28;20056;-78
2021/05/31 09:36:49;;;;;;;5.75;1.35;;;;;;;16.31;42.88;102194.75;6271495;28;19927;-77
2021/05/31 09:39:58;;;;;;;15.40;1.73;;;;;;;16.43;41.12;102196.72;6262083;28;20068;-79
2021/05/31 09:43:01;;;;;;;4.05;1.45;;;;;;;16.41;40.50;102195.09;6262142;28;20048;-77
2021/05/31 09:46:02;;;;;;;1.83;1.20;;;;;;;16.50;42.09;102191.94;6258409;28;20076;-79
2021/05/31 09:49:10;;;;;;;3.42;1.30;;;;;;;16.60;40.21;102187.81;6273492;28;20389;-78
2021/05/31 09:52:13;;;;;;;4.45;1.38;;;;;;;16.60;41.68;102190.47;6273373;28;20505;-80
2021/05/31 09:55:14;;;;;;;4.85;1.45;;;;;;;16.68;42.41;102190.06;6271200;28;20076;-79
2021/05/31 09:58:17;;;;;;;4.35;1.13;;;;;;;16.76;41.67;102181.69;6272878;28;20483;-79
2021/05/31 10:01:33;;;;;;;2.92;1.42;;;;;;;16.90;42.39;102184.44;6272338;28;20503;-79
2021/05/31 10:04:43;;;;;;;6.35;1.30;;;;;;;17.01;40.98;102179.34;6273703;28;20061;-79
2021/05/31 10:07:52;;;;;;;3.58;1.50;;;;;;;17.11;41.60;102180.53;6273703;28;20044;-80
2021/05/31 10:10:53;;;;;;;2.75;1.45;;;;;;;17.19;41.94;102175.63;6273165;28;20435;-80
2021/05/31 10:13:55;;;;;;;8.38;1.60;;;;;;;17.18;42.49;102179.25;6273105;28;20049;-79
2021/05/31 10:16:58;;;;;;;6.68;1.20;;;;;;;17.48;40.76;102173.91;6274140;28;20436;-78
2021/05/31 10:20:01;;;;;;;3.75;1.40;;;;;;;17.61;39.61;102178.50;6272827;28;20049;-79
2021/05/31 10:23:04;;;;;;;1.67;1.13;;;;;;;17.68;37.47;102171.88;6272762;28;20087;-79
2021/05/31 10:26:09;;;;;;;8.70;1.30;;;;;;;17.67;38.77;102165.69;6273852;28;20045;-80
2021/05/31 10:29:10;;;;;;;10.05;1.70;;;;;;;17.64;38.37;102165.88;6265699;28;20128;-78
2021/05/31 10:32:13;;;;;;;3.88;1.35;;;;;;;17.78;39.85;102157.09;6263619;28;20049;-80
2021/05/31 10:35:16;;;;;;;6.13;1.30;;;;;;;18.00;36.10;102154.81;6268833;28;20425;-77
2021/05/31 10:38:20;;;;;;;5.97;1.10;;;;;;;18.17;37.31;102156.44;6277359;28;20517;-79
2021/05/31 10:41:23;;;;;;;10.88;1.60;;;;;;;18.33;36.75;102150.13;6276950;28;20048;-77
2021/05/31 10:44:30;;;;;;;5.70;1.40;;;;;;;18.36;36.82;102145.47;6267874;28;20500;-77
2021/05/31 10:47:31;;;;;;;8.30;1.42;;;;;;;18.42;37.07;102145.06;6275579;28;20059;-78
2021/05/31 10:50:34;;;;;;;6.03;1.13;;;;;;;18.65;36.66;102142.72;6276189;28;20079;-78
2021/05/31 10:53:38;;;;;;;2.90;1.38;;;;;;;18.81;35.66;102139.97;6275732;28;20056;-78
2021/05/31 10:56:41;;;;;;;5.20;1.27;;;;;;;19.06;34.57;102128.53;6276517;28;20096;-77
2021/05/31 10:59:49;;;;;;;3.38;1.30;;;;;;;19.31;34.87;102123.25;6276581;28;20495;-79
2021/05/31 11:03:02;;;;;;;2.53;0.97;;;;;;;19.24;35.38;102124.63;6270238;28;20049;-80
2021/05/31 11:06:11;;;;;;;3.40;1.88;;;;;;;19.40;35.97;102117.28;6277232;28;20091;-80
2021/05/31 11:09:14;;;;;;;20.05;1.95;;;;;;;19.63;38.24;102120.22;6280202;28;20049;-79
2021/05/31 11:12:15;;;;;;;7.30;1.40;;;;;;;19.94;31.39;102119.75;6279574;28;20210;-78
2021/05/31 11:15:19;;;;;;;3.85;1.05;;;;;;;19.92;34.16;102112.81;6255287;23;20529;-83
2021/05/31 11:18:32;;;;;;;7.63;1.30;;;;;;;20.18;33.69;102109.13;6200817;28;20140;-81
2021/05/31 11:21:37;;;;;;;3.63;1.40;;;;;;;20.38;35.13;102101.47;6197124;28;20050;-83
2021/05/31 11:24:39;;;;;;;6.22;1.85;;;;;;;20.45;32.24;102092.91;6202793;28;20054;-82
2021/05/31 11:27:42;;;;;;;100.88;5.85;;;;;;;20.81;30.70;102101.03;6201681;28;20482;-83
2021/05/31 11:30:43;;;;;;;2.63;1.10;;;;;;;21.16;30.64;102099.19;6201268;28;20054;-82
2021/05/31 11:33:44;;;;;;;18.63;1.50;;;;;;;21.10;31.59;102093.47;6201036;28;20065;-81
2021/05/31 11:36:45;;;;;;;9.30;1.20;;;;;;;21.43;31.36;102096.22;6201443;28;20050;-81
2021/05/31 11:39:47;;;;;;;4.50;2.53;;;;;;;21.60;29.39;102086.03;6201311;28;20449;-80
2021/05/31 11:42:50;;;;;;;4.18;1.30;;;;;;;21.69;32.40;102088.00;6201541;28;20517;-81
2021/05/31 11:45:51;;;;;;;3.22;1.13;;;;;;;21.98;28.79;102081.19;6200035;28;20427;-82
2021/05/31 11:48:52;;;;;;;2.15;1.15;;;;;;;22.21;31.33;102081.16;6201138;28;20054;-83
2021/05/31 11:52:01;;;;;;;1.95;0.85;;;;;;;22.50;30.24;102081.47;6201772;28;20046;-81
2021/05/31 11:55:04;;;;;;;2.35;1.10;;;;;;;22.72;30.27;102081.38;6201115;28;20050;-82
2021/05/31 11:58:07;;;;;;;5.38;1.02;;;;;;;22.95;25.22;102076.78;6200641;28;20054;-82
2021/05/31 12:01:10;;;;;;;2.25;1.10;;;;;;;23.15;25.79;102066.19;6195983;28;20050;-81
2021/05/31 12:04:11;;;;;;;72.63;5.90;;;;;;;23.06;27.71;102062.47;6180037;28;20058;-81
2021/05/31 12:07:13;;;;;;;6.15;1.20;;;;;;;23.27;27.16;102057.94;6221308;28;20038;-80
2021/05/31 12:10:16;;;;;;;5.57;1.35;;;;;;;23.45;27.71;102060.03;6215537;28;20109;-81
2021/05/31 12:13:16;;;;;;;8.35;1.60;;;;;;;23.60;29.55;102068.56;6225095;28;20046;-85
2021/05/31 12:16:18;;;;;;;1.98;1.17;;;;;;;23.75;27.51;102057.38;6205952;28;20057;-79
2021/05/31 12:19:18;;;;;;;8.50;1.30;;;;;;;24.10;26.63;102050.66;6213153;28;20072;-83
2021/05/31 12:22:22;;;;;;;5.53;1.00;;;;;;;24.22;28.77;102056.78;6224217;28;20053;-81
2021/05/31 12:25:24;;;;;;;11.52;1.60;;;;;;;24.47;25.96;102045.50;6225080;28;20386;-82
2021/05/31 12:28:29;;;;;;;2.67;1.08;;;;;;;24.46;27.18;102042.97;6224451;28;20053;-81
2021/05/31 12:31:32;;;;;;;32.65;1.98;;;;;;;24.48;27.08;102041.84;6224895;28;20551;-83
2021/05/31 12:34:34;;;;;;;22.95;2.47;;;;;;;24.54;26.23;102041.28;6224456;28;20050;-83
2021/05/31 12:37:37;;;;;;;4.03;1.15;;;;;;;24.47;24.80;102031.22;6224088;28;20046;-82
2021/05/31 12:40:42;;;;;;;5.90;1.50;;;;;;;24.48;27.35;102033.78;6207754;28;20050;-80
2021/05/31 12:43:43;;;;;;;4.53;1.20;;;;;;;24.55;25.16;102034.06;6192739;28;20053;-80
2021/05/31 12:46:45;;;;;;;32.85;3.00;;;;;;;24.53;26.81;102036.06;6199923;28;20433;-80
2021/05/31 12:49:47;;;;;;;60.38;4.22;;;;;;;24.75;25.68;102033.06;6199706;28;20053;-84
2021/05/31 12:52:48;;;;;;;5.90;1.40;;;;;;;24.83;24.28;102026.09;6200431;28;20050;-82
2021/05/31 12:55:51;;;;;;;13.27;1.40;;;;;;;24.93;27.73;102037.69;6200373;28;20572;-81
2021/05/31 12:59:01;;;;;;;6.65;1.77;;;;;;;24.80;25.49;102025.41;6200443;28;20058;-80
2021/05/31 13:02:02;;;;;;;4.90;1.13;;;;;;;24.88;27.72;102018.47;6199641;28;20050;-81
2021/05/31 13:05:05;;;;;;;3.70;1.50;;;;;;;25.06;27.68;102022.94;6200119;28;20050;-81
2021/05/31 13:08:10;;;;;;;13.60;1.75;;;;;;;24.99;23.51;102016.47;6199530;28;20077;-80
2021/05/31 13:11:12;;;;;;;17.15;1.27;;;;;;;24.88;24.65;102013.06;6200112;28;20461;-81
2021/05/31 13:14:17;;;;;;;2.55;1.08;;;;;;;24.96;22.93;102015.91;6199829;28;20449;-80
2021/05/31 13:17:18;;;;;;;3.08;1.20;;;;;;;25.08;23.82;102013.94;6200193;28;20066;-81
2021/05/31 13:20:20;;;;;;;7.68;1.25;;;;;;;24.76;26.56;102021.31;6200349;28;20501;-81
2021/05/31 13:23:23;;;;;;;6.80;1.30;;;;;;;24.94;26.68;102009.81;6201054;28;20054;-81
2021/05/31 13:26:28;;;;;;;5.15;1.20;;;;;;;25.03;25.09;102000.88;6200809;28;20528;-80
2021/05/31 13:29:29;;;;;;;6.72;1.38;;;;;;;25.47;25.24;102002.00;6200774;28;20038;-80
2021/05/31 13:32:30;;;;;;;2.92;1.30;;;;;;;25.21;26.03;101999.16;6200386;28;20524;-77
2021/05/31 13:35:32;;;;;;;10.93;1.58;;;;;;;25.44;26.29;101993.41;6202172;28;20058;-77
2021/05/31 13:38:32;;;;;;;1.98;1.13;;;;;;;25.49;24.08;101993.81;6200661;28;20105;-80
2021/05/31 13:41:36;;;;;;;3.30;1.30;;;;;;;25.28;25.36;101985.97;6199172;28;20529;-80
2021/05/31 13:44:37;;;;;;;4.35;1.17;;;;;;;25.29;27.37;101991.19;6199994;28;20050;-80
2021/05/31 13:47:37;;;;;;;7.97;1.33;;;;;;;25.47;26.61;101993.09;6199991;28;20057;-80
2021/05/31 13:50:39;;;;;;;1.25;0.95;;;;;;;25.51;25.98;101983.72;6198579;28;20085;-81
2021/05/31 13:53:40;;;;;;;9.50;1.35;;;;;;;25.53;25.13;101979.91;6198719;28;20051;-80
2021/05/31 13:56:42;;;;;;;4.38;1.45;;;;;;;25.61;25.98;101979.13;6198391;28;20541;-80
2021/05/31 13:59:43;;;;;;;2.03;1.20;;;;;;;25.55;25.40;101972.50;6198638;28;20053;-80
2021/05/31 14:02:45;;;;;;;2.70;1.20;;;;;;;25.59;24.75;101974.91;6198359;28;20086;-80
2021/05/31 14:05:48;;;;;;;8.32;1.55;;;;;;;25.73;23.88;101974.41;6198203;28;20119;-80
2021/05/31 14:08:49;;;;;;;7.05;1.20;;;;;;;25.64;25.60;101968.06;6202481;28;20570;-76